Terminal Aerodrome Forecast
Issued by NWS Atlanta, GA

Home | Current Version | Previous Version | Text Only | Print | Product List | Glossary On
Versions: 1 2 3 4 5 6 7 8 9 10 11 12 13 14 15 16 17 18 19 20 21 22 23 24 25 26 27 28 29 30 31 32 33 34 35 36 37 38 39 40 41 42 43
000
FTUS42 KFFC 021106 AAC
TAFATL
TAF AMD
KATL 021106Z 0211/0312 26005KT P6SM SCT040 BKN150
     FM021400 27008KT P6SM BKN050
     FM021600 25008KT P6SM VCSH BKN050
      TEMPO 0218/0222 VRB15G25KT 6SM TSRA BKN035CB
     FM030000 24007KT P6SM BKN100
     FM030900 23006KT P6SM OVC015=

USA.gov is the U.S. government's official web portal to all federal, state and local government web resources and services.